createdAt,value
2022-11-10T00:01:36.860Z,15.02
2022-11-10T00:04:21.783Z,10.23
2022-11-10T00:07:06.666Z,14.25
2022-11-10T00:09:54.966Z,10.95
2022-11-10T00:12:39.997Z,10.77
2022-11-10T00:15:43.649Z,10.15
2022-11-10T00:18:28.834Z,11.27
2022-11-10T00:21:15.636Z,10.45
2022-11-10T00:24:00.777Z,11.20
2022-11-10T00:26:46.561Z,10.13
2022-11-10T00:29:31.504Z,12.07
2022-11-10T00:32:16.463Z,9.57
2022-11-10T00:35:01.581Z,9.82
2022-11-10T00:37:49.422Z,9.75
2022-11-10T00:40:34.481Z,8.63
2022-11-10T00:43:22.512Z,9.68
2022-11-10T00:46:10.282Z,10.32
2022-11-10T00:48:55.177Z,10.32
2022-11-10T00:51:40.012Z,10.60
2022-11-10T00:54:25.740Z,11.20
2022-11-10T00:57:10.636Z,14.35
2022-11-10T00:59:55.611Z,8.95
2022-11-10T01:02:40.519Z,10.57
2022-11-10T01:05:25.382Z,12.20
2022-11-10T01:08:10.709Z,8.10
2022-11-10T01:11:04.786Z,8.63
2022-11-10T01:13:52.023Z,9.93
2022-11-10T01:16:37.203Z,10.63
2022-11-10T01:19:22.267Z,8.90
2022-11-10T01:22:07.938Z,10.63
2022-11-10T01:24:53.083Z,9.88
2022-11-10T01:27:38.024Z,18.23
2022-11-10T01:30:22.866Z,9.07
2022-11-10T01:33:07.867Z,9.20
2022-11-10T01:35:52.809Z,13.77
2022-11-10T01:38:40.182Z,10.85
2022-11-10T01:41:25.203Z,11.95
2022-11-10T01:44:25.296Z,9.68
2022-11-10T01:47:10.341Z,9.88
2022-11-10T01:49:55.359Z,8.85
2022-11-10T01:52:43.569Z,8.63
2022-11-10T01:55:28.866Z,13.15
2022-11-10T01:58:16.251Z,12.38
2022-11-10T02:01:01.208Z,9.60
2022-11-10T02:03:50.236Z,8.00
2022-11-10T02:06:40.832Z,10.23
2022-11-10T02:09:26.011Z,12.10
2022-11-10T02:12:11.890Z,11.85
2022-11-10T02:14:56.717Z,7.43
2022-11-10T02:17:42.182Z,12.77
2022-11-10T02:20:27.145Z,11.57
2022-11-10T02:23:35.437Z,12.70
2022-11-10T02:26:24.302Z,10.23
2022-11-10T02:29:09.658Z,11.20
2022-11-10T02:31:54.832Z,13.02
2022-11-10T02:34:40.034Z,13.90
2022-11-10T02:37:25.298Z,14.57
2022-11-10T02:40:10.847Z,11.43
2022-11-10T02:42:56.086Z,9.98
2022-11-10T02:45:47.112Z,10.93
2022-11-10T02:48:32.038Z,9.15
2022-11-10T02:51:17.470Z,11.45
2022-11-10T02:54:02.443Z,11.27
2022-11-10T02:56:47.663Z,13.68
2022-11-10T02:59:32.589Z,11.45
2022-11-10T03:02:17.714Z,13.93
2022-11-10T03:05:02.867Z,11.30
2022-11-10T03:07:57.052Z,15.07
2022-11-10T03:10:42.313Z,16.88
2022-11-10T03:13:40.210Z,13.77
2022-11-10T03:16:32.588Z,10.77
2022-11-10T03:19:17.570Z,17.55
2022-11-10T03:22:02.430Z,11.00
2022-11-10T03:24:47.339Z,9.85
2022-11-10T03:27:32.676Z,13.85
2022-11-10T03:30:17.567Z,8.45
2022-11-10T03:33:03.852Z,15.80
2022-11-10T03:35:48.800Z,12.32
2022-11-10T03:38:33.580Z,11.27
2022-11-10T03:41:20.082Z,13.73
2022-11-10T03:44:05.655Z,10.60
2022-11-10T03:46:51.888Z,8.18
2022-11-10T03:49:36.935Z,13.57
2022-11-10T03:52:21.847Z,10.40
2022-11-10T03:55:07.564Z,13.07
2022-11-10T03:57:52.383Z,12.85
2022-11-10T04:00:37.365Z,12.68
2022-11-10T04:03:23.360Z,9.90
2022-11-10T04:06:29.210Z,15.60
2022-11-10T04:09:14.432Z,16.45
2022-11-10T04:12:22.112Z,10.65
2022-11-10T04:15:30.736Z,14.05
2022-11-10T04:18:21.926Z,17.65
2022-11-10T04:21:06.919Z,12.50
2022-11-10T04:23:51.811Z,15.48
2022-11-10T04:26:38.683Z,12.23
2022-11-10T04:29:23.578Z,14.48
2022-11-10T04:32:08.538Z,14.35
2022-11-10T04:34:53.458Z,16.80
2022-11-10T04:37:38.273Z,18.42
2022-11-10T04:40:23.216Z,10.75
2022-11-10T04:43:08.510Z,14.07
2022-11-10T04:45:54.520Z,13.10
2022-11-10T04:48:39.385Z,18.67
2022-11-10T04:51:30.092Z,13.30
2022-11-10T04:54:15.229Z,19.00
2022-11-10T04:57:00.138Z,11.68
2022-11-10T04:59:45.076Z,16.30
2022-11-10T05:02:30.348Z,13.15
2022-11-10T05:05:15.770Z,11.75
2022-11-10T05:08:01.064Z,13.30
2022-11-10T05:10:45.923Z,12.73
2022-11-10T05:13:31.362Z,15.93
2022-11-10T05:16:16.780Z,12.30
2022-11-10T05:19:01.840Z,12.73
2022-11-10T05:21:46.749Z,17.27
2022-11-10T05:24:31.660Z,11.55
2022-11-10T05:27:16.545Z,12.52
2022-11-10T05:30:01.421Z,15.98
2022-11-10T05:32:46.328Z,14.65
2022-11-10T05:35:31.399Z,18.30
2022-11-10T05:38:17.202Z,14.60
2022-11-10T05:41:02.144Z,13.10
2022-11-10T05:43:47.339Z,16.27
2022-11-10T05:46:32.479Z,16.75
2022-11-10T05:49:17.353Z,14.25
2022-11-10T05:52:02.275Z,12.15
2022-11-10T05:54:47.186Z,10.93
2022-11-10T05:57:33.479Z,17.13
2022-11-10T06:00:21.804Z,22.83
2022-11-10T06:03:13.853Z,18.38
2022-11-10T06:05:58.727Z,16.20
2022-11-10T06:08:43.606Z,16.10
2022-11-10T06:11:28.479Z,11.90
2022-11-10T06:14:13.242Z,11.75
2022-11-10T06:16:58.259Z,15.90
2022-11-10T06:19:43.089Z,15.73
2022-11-10T06:22:28.334Z,13.95
2022-11-10T06:25:13.260Z,16.02
2022-11-10T06:27:59.082Z,11.52
2022-11-10T06:30:44.133Z,11.95
2022-11-10T06:33:29.185Z,14.57
2022-11-10T06:36:14.293Z,11.55
2022-11-10T06:38:59.436Z,15.88
2022-11-10T06:41:44.342Z,13.70
2022-11-10T06:44:29.268Z,14.02
2022-11-10T06:47:15.829Z,11.88
2022-11-10T06:50:00.886Z,18.83
2022-11-10T06:52:53.674Z,13.93
2022-11-10T06:55:39.200Z,16.80
2022-11-10T06:58:24.191Z,12.00
2022-11-10T07:01:09.107Z,12.90
2022-11-10T07:04:18.299Z,10.77
2022-11-10T07:06:59.145Z,13.35
2022-11-10T07:09:43.901Z,13.73
2022-11-10T07:12:28.847Z,14.43
2022-11-10T07:15:13.741Z,17.73
2022-11-10T07:17:58.906Z,11.23
2022-11-10T07:20:43.742Z,15.20
2022-11-10T07:23:28.805Z,15.60
2022-11-10T07:26:13.898Z,11.73
2022-11-10T07:28:59.130Z,16.52
2022-11-10T07:31:44.180Z,14.00
2022-11-10T07:34:29.741Z,13.48
2022-11-10T07:37:14.942Z,12.40
2022-11-10T07:39:59.817Z,8.48
2022-11-10T07:42:44.791Z,14.35
2022-11-10T07:45:31.309Z,13.60
2022-11-10T07:48:17.106Z,14.40
2022-11-10T07:51:02.008Z,15.00
2022-11-10T07:53:46.765Z,15.02
2022-11-10T07:56:32.019Z,11.98
2022-11-10T07:59:17.144Z,11.55
2022-11-10T08:02:02.067Z,13.20
2022-11-10T08:04:46.835Z,12.68
2022-11-10T08:07:31.777Z,12.38
2022-11-10T08:10:16.814Z,18.00
2022-11-10T08:13:04.537Z,11.90
2022-11-10T08:15:49.834Z,17.98
2022-11-10T08:18:35.835Z,17.65
2022-11-10T08:21:20.666Z,14.60
2022-11-10T08:24:05.883Z,9.02
2022-11-10T08:26:50.958Z,13.80
2022-11-10T08:29:36.114Z,13.10
2022-11-10T08:32:21.275Z,15.48
2022-11-10T08:35:06.833Z,13.35
2022-11-10T08:37:51.905Z,16.88
2022-11-10T08:40:37.820Z,16.42
2022-11-10T08:43:23.910Z,16.58
2022-11-10T08:46:09.186Z,13.90
2022-11-10T08:48:54.378Z,14.07
2022-11-10T08:51:39.552Z,12.85
2022-11-10T08:54:24.791Z,13.35
2022-11-10T08:57:09.661Z,13.82
2022-11-10T08:59:54.526Z,11.07
2022-11-10T09:02:39.479Z,20.42
2022-11-10T09:05:24.264Z,13.13
2022-11-10T09:08:09.638Z,13.48
2022-11-10T09:10:54.726Z,14.10
2022-11-10T09:13:39.797Z,15.48
2022-11-10T09:16:24.729Z,11.73
2022-11-10T09:19:09.704Z,18.48
2022-11-10T09:21:54.619Z,13.35
2022-11-10T09:24:39.402Z,14.40
2022-11-10T09:27:24.387Z,17.35
2022-11-10T09:30:14.546Z,12.10
2022-11-10T09:33:02.692Z,11.60
2022-11-10T09:35:47.871Z,20.00
2022-11-10T09:38:33.865Z,10.32
2022-11-10T09:41:18.759Z,15.75
2022-11-10T09:44:18.273Z,13.90
2022-11-10T09:47:12.452Z,14.85
2022-11-10T09:50:01.969Z,20.73
2022-11-10T09:52:49.172Z,17.35
2022-11-10T09:55:49.863Z,11.07
2022-11-10T09:58:43.329Z,16.13
2022-11-10T10:01:49.380Z,13.63
2022-11-10T10:05:07.432Z,18.13
2022-11-10T10:08:02.256Z,18.35
2022-11-10T10:10:51.810Z,14.02
2022-11-10T10:13:57.196Z,16.70
2022-11-10T10:16:54.396Z,19.10
2022-11-10T10:20:09.844Z,14.35
2022-11-10T10:23:05.709Z,17.85
2022-11-10T10:25:53.345Z,18.05
2022-11-10T10:28:40.892Z,12.77
2022-11-10T10:31:32.473Z,11.35
2022-11-10T10:34:27.252Z,10.35
2022-11-10T10:37:24.734Z,11.73
2022-11-10T10:40:19.070Z,17.83
2022-11-10T10:43:04.131Z,15.27
2022-11-10T10:46:07.803Z,15.73
2022-11-10T10:49:27.858Z,14.52
2022-11-10T10:52:16.794Z,14.65
2022-11-10T10:55:07.958Z,13.98
2022-11-10T10:58:00.040Z,15.85
2022-11-10T11:00:47.988Z,9.93
2022-11-10T11:03:47.832Z,13.27
2022-11-10T11:06:34.688Z,10.05
2022-11-10T11:09:27.647Z,7.65
2022-11-10T11:12:25.908Z,11.80
2022-11-10T11:15:20.922Z,11.63
2022-11-10T11:18:18.517Z,12.00
2022-11-10T11:21:09.586Z,9.95
2022-11-10T11:23:54.306Z,12.30
2022-11-10T11:27:05.087Z,9.35
2022-11-10T11:30:05.549Z,14.75
2022-11-10T11:33:00.898Z,14.75
2022-11-10T11:35:51.596Z,12.80
2022-11-10T11:38:49.294Z,7.90
2022-11-10T11:41:57.775Z,9.48
2022-11-10T11:45:07.095Z,9.30
2022-11-10T11:48:16.651Z,12.23
2022-11-10T11:51:18.124Z,9.27
2022-11-10T11:54:26.523Z,8.77
2022-11-10T11:57:17.648Z,9.88
2022-11-10T12:00:13.376Z,13.38
2022-11-10T12:03:29.782Z,11.25
2022-11-10T12:06:24.247Z,8.88
2022-11-10T12:09:41.505Z,9.90
2022-11-10T12:12:48.348Z,9.40
2022-11-10T12:15:46.444Z,12.52
2022-11-10T12:18:40.060Z,11.10
2022-11-10T12:21:46.184Z,10.73
2022-11-10T12:24:44.273Z,13.57
2022-11-10T12:27:40.753Z,8.23
2022-11-10T12:30:27.062Z,9.23
2022-11-10T12:33:21.211Z,10.73
2022-11-10T12:36:12.343Z,11.27
2022-11-10T12:39:04.577Z,7.07
2022-11-10T12:41:55.863Z,10.52
2022-11-10T12:45:05.664Z,11.85
2022-11-10T12:47:52.762Z,15.88
2022-11-10T12:50:44.032Z,7.75
2022-11-10T12:53:38.502Z,10.13
2022-11-10T12:56:39.378Z,7.28
2022-11-10T12:59:26.702Z,8.75
2022-11-10T13:02:31.683Z,12.00
2022-11-10T13:05:36.958Z,6.40
2022-11-10T13:08:46.888Z,7.45
2022-11-10T13:11:36.772Z,11.15
2022-11-10T13:14:28.754Z,8.73
2022-11-10T13:17:29.217Z,6.53
2022-11-10T13:20:39.239Z,9.60
2022-11-10T13:23:31.791Z,10.82
2022-11-10T13:27:33.586Z,8.55
2022-11-10T13:30:46.368Z,8.35
2022-11-10T13:33:38.037Z,7.18
2022-11-10T13:36:43.684Z,8.25
2022-11-10T13:39:33.422Z,5.45
2022-11-10T13:42:23.206Z,6.95
2022-11-10T13:45:26.560Z,9.57
2022-11-10T13:48:11.393Z,6.97
2022-11-10T13:51:32.753Z,7.85
2022-11-10T13:54:44.356Z,7.95
2022-11-10T13:57:35.641Z,11.32
2022-11-10T14:00:20.752Z,10.57
2022-11-10T14:03:07.563Z,6.22
2022-11-10T14:06:03.026Z,5.50
2022-11-10T14:09:13.695Z,8.18
2022-11-10T14:12:06.070Z,8.45
2022-11-10T14:15:06.751Z,8.68
2022-11-10T14:17:54.656Z,4.05
2022-11-10T14:20:45.341Z,6.03
2022-11-10T14:23:42.237Z,10.10
2022-11-10T14:26:35.795Z,8.75
2022-11-10T14:32:32.259Z,8.43
2022-11-10T14:35:20.965Z,7.90
2022-11-10T14:38:17.926Z,5.90
2022-11-10T14:41:06.612Z,7.38
2022-11-10T14:44:06.841Z,8.10
2022-11-10T14:46:52.975Z,6.88
2022-11-10T14:49:38.166Z,8.10
2022-11-10T14:52:23.139Z,6.28
2022-11-10T14:55:13.259Z,5.32
2022-11-10T14:58:09.997Z,5.90
2022-11-10T15:00:54.974Z,10.90
2022-11-10T15:03:42.555Z,6.93
2022-11-10T15:06:29.058Z,6.18
2022-11-10T15:09:16.910Z,8.98
2022-11-10T15:12:08.237Z,7.90
2022-11-10T15:14:59.207Z,8.85
2022-11-10T15:17:50.426Z,8.13
2022-11-10T15:20:38.534Z,8.32
2022-11-10T15:23:33.432Z,9.35
2022-11-10T15:26:24.893Z,8.48
2022-11-10T15:29:19.949Z,6.20
2022-11-10T15:32:15.012Z,10.60
2022-11-10T15:35:18.411Z,9.23
2022-11-10T15:38:05.341Z,7.50
2022-11-10T15:40:52.443Z,6.15
2022-11-10T15:43:37.565Z,10.00
2022-11-10T15:46:25.526Z,8.15
2022-11-10T15:49:39.801Z,9.55
2022-11-10T15:52:24.633Z,5.82
2022-11-10T15:55:20.279Z,9.70
2022-11-10T15:58:11.814Z,6.82
2022-11-10T16:00:56.772Z,7.57
2022-11-10T16:03:42.184Z,4.78
2022-11-10T16:06:27.426Z,7.05
2022-11-10T16:09:13.392Z,8.48
2022-11-10T16:11:58.367Z,4.97
2022-11-10T16:14:48.335Z,7.18
2022-11-10T16:17:34.792Z,7.63
2022-11-10T16:20:19.726Z,10.77
2022-11-10T16:23:04.623Z,7.75
2022-11-10T16:25:51.923Z,7.57
2022-11-10T16:28:36.754Z,8.45
2022-11-10T16:31:22.486Z,7.13
2022-11-10T16:34:13.887Z,7.53
2022-11-10T16:36:59.937Z,10.48
2022-11-10T16:39:44.725Z,6.18
2022-11-10T16:42:30.073Z,6.70
2022-11-10T16:45:20.860Z,6.78
2022-11-10T16:48:07.442Z,7.35
2022-11-10T16:50:54.977Z,7.05
2022-11-10T16:53:41.405Z,10.43
2022-11-10T16:56:26.922Z,6.63
2022-11-10T16:59:13.383Z,9.65
2022-11-10T17:01:58.605Z,12.48
2022-11-10T17:04:43.665Z,8.80
2022-11-10T17:07:29.385Z,10.85
2022-11-10T17:10:19.517Z,7.00
2022-11-10T17:13:04.468Z,10.65
2022-11-10T17:15:51.764Z,8.90
2022-11-10T17:18:36.676Z,10.32
2022-11-10T17:21:22.950Z,9.43
2022-11-10T17:24:10.909Z,7.10
2022-11-10T17:26:55.874Z,6.88
2022-11-10T17:29:40.757Z,7.45
2022-11-10T17:32:50.153Z,7.03
2022-11-10T17:35:35.060Z,8.15
2022-11-10T17:38:33.295Z,7.88
2022-11-10T17:41:19.906Z,7.28
2022-11-10T17:44:05.042Z,7.72
2022-11-10T17:46:50.050Z,7.07
2022-11-10T17:49:34.849Z,5.70
2022-11-10T17:52:19.821Z,7.63
2022-11-10T17:55:05.047Z,9.65
2022-11-10T17:57:50.671Z,6.22
2022-11-10T18:00:35.974Z,10.15
2022-11-10T18:03:22.964Z,14.77
2022-11-10T18:06:08.562Z,9.25
2022-11-10T18:08:53.702Z,6.28
2022-11-10T18:11:38.728Z,7.07
2022-11-10T18:14:23.487Z,7.03
2022-11-10T18:17:08.341Z,7.25
2022-11-10T18:19:53.330Z,10.38
2022-11-10T18:22:38.584Z,14.73
2022-11-10T18:25:23.551Z,9.52
2022-11-10T18:28:13.710Z,7.30
2022-11-10T18:30:58.632Z,6.25
2022-11-10T18:33:43.572Z,8.10
2022-11-10T18:36:28.551Z,8.23
2022-11-10T18:39:13.751Z,5.82
2022-11-10T18:41:58.605Z,10.75
2022-11-10T18:44:43.589Z,6.40
2022-11-10T18:47:28.558Z,8.93
2022-11-10T18:50:13.383Z,9.40
2022-11-10T18:52:58.514Z,11.70
2022-11-10T18:55:53.229Z,6.97
2022-11-10T18:58:38.152Z,7.88
2022-11-10T19:01:23.834Z,7.10
2022-11-10T19:04:09.766Z,6.07
2022-11-10T19:06:54.796Z,5.32
2022-11-10T19:09:39.862Z,8.25
2022-11-10T19:12:26.672Z,6.00
2022-11-10T19:15:12.132Z,9.23
2022-11-10T19:17:57.061Z,10.70
2022-11-10T19:20:42.427Z,6.90
2022-11-10T19:23:27.380Z,6.22
2022-11-10T19:26:18.003Z,7.32
2022-11-10T19:29:07.353Z,6.88
2022-11-10T19:31:52.288Z,9.32
2022-11-10T19:34:40.339Z,11.07
2022-11-10T19:37:26.244Z,12.93
2022-11-10T19:40:13.598Z,13.63
2022-11-10T19:42:58.814Z,9.32
2022-11-10T19:45:43.814Z,10.55
2022-11-10T19:48:30.485Z,10.38
2022-11-10T19:51:17.900Z,8.70
2022-11-10T19:54:04.817Z,6.60
2022-11-10T19:56:49.867Z,6.45
2022-11-10T19:59:34.893Z,6.13
2022-11-10T20:02:20.118Z,5.15
2022-11-10T20:05:16.075Z,9.13
2022-11-10T20:08:13.424Z,7.53
2022-11-10T20:11:01.317Z,11.00
2022-11-10T20:13:49.784Z,8.73
2022-11-10T20:16:38.251Z,11.05
2022-11-10T20:19:23.145Z,7.55
2022-11-10T20:22:08.261Z,6.32
2022-11-10T20:24:53.415Z,7.55
2022-11-10T20:27:38.225Z,10.20
2022-11-10T20:30:23.874Z,9.25
2022-11-10T20:33:08.878Z,11.85
2022-11-10T20:35:53.795Z,8.52
2022-11-10T20:38:39.764Z,6.88
2022-11-10T20:41:27.227Z,10.93
2022-11-10T20:44:12.279Z,8.93
2022-11-10T20:46:57.403Z,8.65
2022-11-10T20:49:42.359Z,8.20
2022-11-10T20:52:27.301Z,9.07
2022-11-10T20:55:18.061Z,9.23
2022-11-10T20:58:03.446Z,7.68
2022-11-10T21:00:48.425Z,7.70
2022-11-10T21:03:33.904Z,11.00
2022-11-10T21:06:19.106Z,11.27
2022-11-10T21:09:06.931Z,7.65
2022-11-10T21:12:10.641Z,9.15
2022-11-10T21:14:56.028Z,6.13
2022-11-10T21:17:44.118Z,7.72
2022-11-10T21:20:29.449Z,12.65
2022-11-10T21:23:14.541Z,10.13
2022-11-10T21:26:00.990Z,6.85
2022-11-10T21:28:45.985Z,9.38
2022-11-10T21:31:31.109Z,10.70
2022-11-10T21:34:16.362Z,7.35
2022-11-10T21:37:01.606Z,9.70
2022-11-10T21:39:46.557Z,10.25
2022-11-10T21:42:35.312Z,6.28
2022-11-10T21:45:21.305Z,7.80
2022-11-10T21:48:07.015Z,12.68
2022-11-10T21:50:52.111Z,10.18
2022-11-10T21:53:39.013Z,13.90
2022-11-10T21:56:23.810Z,8.77
2022-11-10T21:59:08.651Z,13.73
2022-11-10T22:01:53.521Z,14.63
2022-11-10T22:04:38.295Z,9.68
2022-11-10T22:07:23.254Z,13.85
2022-11-10T22:10:28.936Z,13.73
2022-11-10T22:13:37.319Z,16.95
2022-11-10T22:16:45.214Z,13.05
2022-11-10T22:19:30.735Z,15.30
2022-11-10T22:22:15.475Z,22.90
2022-11-10T22:25:00.423Z,15.80
2022-11-10T22:27:45.509Z,25.95
2022-11-10T22:30:30.645Z,15.73
2022-11-10T22:33:27.968Z,22.55
2022-11-10T22:36:15.476Z,20.58
2022-11-10T22:39:03.637Z,18.63
2022-11-10T22:42:08.117Z,23.35
2022-11-10T22:47:56.630Z,18.40
2022-11-10T22:50:41.954Z,18.45
2022-11-10T22:53:27.001Z,19.50
2022-11-10T22:56:12.483Z,22.65
2022-11-10T22:59:00.086Z,21.63
2022-11-10T23:01:45.693Z,19.90
2022-11-10T23:04:30.826Z,17.88
2022-11-10T23:07:15.739Z,19.73
2022-11-10T23:10:00.662Z,21.20
2022-11-10T23:12:45.608Z,23.58
2022-11-10T23:15:34.437Z,25.77
2022-11-10T23:18:20.631Z,23.30
2022-11-10T23:21:09.181Z,19.65
2022-11-10T23:23:54.977Z,22.85
2022-11-10T23:26:40.263Z,20.35
2022-11-10T23:29:25.122Z,22.02
2022-11-10T23:32:09.976Z,19.58
2022-11-10T23:34:54.762Z,21.90
2022-11-10T23:37:39.661Z,21.55
2022-11-10T23:40:24.611Z,21.90
2022-11-10T23:43:09.400Z,19.90
2022-11-10T23:46:10.320Z,18.05
2022-11-10T23:48:55.361Z,12.30
2022-11-10T23:51:40.411Z,10.43
2022-11-10T23:54:25.154Z,11.25
2022-11-10T23:57:10.243Z,10.30
2022-11-10T23:59:55.016Z,7.70
